createdAt,value
2019-06-07T00:00:26.874Z,13.00
2019-06-07T00:02:38.882Z,13.00
2019-06-07T00:05:10.070Z,13.00
2019-06-07T00:07:41.094Z,13.00
2019-06-07T00:10:30.239Z,13.00
2019-06-07T00:12:43.856Z,13.00
2019-06-07T00:15:20.132Z,13.00
2019-06-07T00:17:46.927Z,12.80
2019-06-07T00:20:23.093Z,12.70
2019-06-07T00:22:49.531Z,12.70
2019-06-07T00:25:24.328Z,12.60
2019-06-07T00:27:52.360Z,12.50
2019-06-07T00:30:42.262Z,12.50
2019-06-07T00:32:54.987Z,12.50
2019-06-07T00:35:25.331Z,12.60
2019-06-07T00:37:55.672Z,12.60
2019-06-07T00:40:31.841Z,12.60
2019-06-07T00:42:58.203Z,12.70
2019-06-07T00:45:28.562Z,12.70
2019-06-07T00:47:58.849Z,12.80
2019-06-07T00:50:29.221Z,12.80
2019-06-07T00:53:14.591Z,12.80
2019-06-07T00:55:31.634Z,12.80
2019-06-07T00:58:02.511Z,12.80
2019-06-07T01:00:33.139Z,12.90
2019-06-07T01:03:03.481Z,12.80
2019-06-07T01:05:33.846Z,12.90
2019-06-07T01:08:04.815Z,12.90
2019-06-07T01:10:52.315Z,12.90
2019-06-07T01:13:07.177Z,12.80
2019-06-07T01:15:37.667Z,12.90
2019-06-07T01:20:40.000Z,13.10
2019-06-07T01:23:51.211Z,13.20
2019-06-07T01:25:42.356Z,13.30
2019-06-07T01:28:12.702Z,13.20
2019-06-07T01:30:43.075Z,13.30
2019-06-07T01:33:13.444Z,13.10
2019-06-07T01:35:43.775Z,13.00
2019-06-07T01:38:14.088Z,13.10
2019-06-07T01:40:44.411Z,13.10
2019-06-07T01:43:14.716Z,13.20
2019-06-07T01:45:45.052Z,13.30
2019-06-07T01:48:17.733Z,13.20
2019-06-07T01:50:47.544Z,13.10
2019-06-07T01:53:20.748Z,13.10
2019-06-07T01:55:49.856Z,13.00
2019-06-07T01:58:22.085Z,12.90
2019-06-07T02:00:52.215Z,12.90
2019-06-07T02:03:28.034Z,12.80
2019-06-07T02:05:54.583Z,12.80
2019-06-07T02:08:27.273Z,12.90
2019-06-07T02:10:56.912Z,12.90
2019-06-07T02:13:28.900Z,12.80
2019-06-07T02:15:59.266Z,12.90
2019-06-07T02:18:34.398Z,12.90
2019-06-07T02:21:01.664Z,13.00
2019-06-07T02:23:33.737Z,13.00
2019-06-07T02:26:04.313Z,12.90
2019-06-07T02:28:45.062Z,12.90
2019-06-07T02:31:06.604Z,13.00
2019-06-07T02:33:40.110Z,12.90
2019-06-07T02:36:08.934Z,12.90
2019-06-07T02:38:39.223Z,12.90
2019-06-07T02:41:09.616Z,12.80
2019-06-07T02:43:39.958Z,12.80
2019-06-07T02:46:30.395Z,12.80
2019-06-07T02:48:55.928Z,12.90
2019-06-07T02:51:32.147Z,13.00
2019-06-07T02:53:58.261Z,12.90
2019-06-07T02:56:42.021Z,12.90
2019-06-07T02:59:00.592Z,13.00
2019-06-07T03:01:38.693Z,13.10
2019-06-07T03:04:03.743Z,13.10
2019-06-07T03:06:39.381Z,13.00
2019-06-07T03:09:09.157Z,13.00
2019-06-07T03:11:42.695Z,12.90
2019-06-07T03:14:13.640Z,12.90
2019-06-07T03:16:52.617Z,12.90
2019-06-07T03:19:38.253Z,12.80
2019-06-07T03:22:09.495Z,12.80
2019-06-07T03:24:42.273Z,12.70
2019-06-07T03:29:44.631Z,12.70
2019-06-07T03:32:14.949Z,12.60
2019-06-07T03:34:45.305Z,12.50
2019-06-07T03:37:15.663Z,12.50
2019-06-07T03:39:46.021Z,12.40
2019-06-07T03:42:16.343Z,12.40
2019-06-07T03:44:46.677Z,12.50
2019-06-07T03:47:16.992Z,12.50
2019-06-07T03:49:47.375Z,12.50
2019-06-07T03:52:17.687Z,12.40
2019-06-07T03:54:48.086Z,12.20
2019-06-07T03:57:18.400Z,12.30
2019-06-07T03:59:48.752Z,12.20
2019-06-07T04:02:19.055Z,12.20
2019-06-07T04:04:49.389Z,12.30
2019-06-07T04:07:19.687Z,12.20
2019-06-07T04:09:50.034Z,12.10
2019-06-07T04:12:20.376Z,12.20
2019-06-07T04:14:50.720Z,12.20
2019-06-07T04:17:21.048Z,12.50
2019-06-07T04:19:51.427Z,12.80
2019-06-07T04:22:21.794Z,12.80
2019-06-07T04:24:52.234Z,12.60
2019-06-07T04:27:22.705Z,12.40
2019-06-07T04:30:06.479Z,12.40
2019-06-07T04:32:25.032Z,12.30
2019-06-07T04:34:55.350Z,12.20
2019-06-07T04:37:28.496Z,12.20
2019-06-07T04:40:01.396Z,12.20
2019-06-07T04:42:34.972Z,12.40
2019-06-07T04:45:05.671Z,12.40
2019-06-07T04:47:39.611Z,12.40
2019-06-07T04:50:10.375Z,12.60
2019-06-07T04:52:44.918Z,12.70
2019-06-07T04:55:12.847Z,12.60
2019-06-07T04:57:43.500Z,12.70
2019-06-07T05:00:46.946Z,13.00
2019-06-07T05:02:46.067Z,13.10
2019-06-07T05:05:16.384Z,13.20
2019-06-07T05:07:46.769Z,13.40
2019-06-07T05:10:17.188Z,13.20
2019-06-07T05:12:47.519Z,13.30
2019-06-07T05:15:17.861Z,13.50
2019-06-07T05:17:48.153Z,13.60
2019-06-07T05:20:18.602Z,13.50
2019-06-07T05:22:48.960Z,13.40
2019-06-07T05:25:19.309Z,13.40
2019-06-07T05:27:49.631Z,13.10
2019-06-07T05:31:03.018Z,13.00
2019-06-07T05:33:08.510Z,13.10
2019-06-07T05:35:41.745Z,13.30
2019-06-07T05:38:11.478Z,13.20
2019-06-07T05:40:47.942Z,13.10
2019-06-07T05:43:25.446Z,13.40
2019-06-07T05:45:55.906Z,13.40
2019-06-07T05:48:26.793Z,13.20
2019-06-07T05:50:57.888Z,13.30
2019-06-07T05:53:28.529Z,13.40
2019-06-07T05:55:58.871Z,13.50
2019-06-07T05:58:29.230Z,13.50
2019-06-07T06:01:41.084Z,13.40
2019-06-07T06:03:31.675Z,13.40
2019-06-07T06:06:02.064Z,13.60
2019-06-07T06:08:36.114Z,13.60
2019-06-07T06:11:04.505Z,13.80
2019-06-07T06:13:34.867Z,14.10
2019-06-07T06:16:06.994Z,14.00
2019-06-07T06:18:38.043Z,14.20
2019-06-07T06:21:18.694Z,14.30
2019-06-07T06:23:42.764Z,14.30
2019-06-07T06:26:12.725Z,14.20
2019-06-07T06:28:45.247Z,14.30
2019-06-07T06:31:15.046Z,14.40
2019-06-07T06:33:47.001Z,14.50
2019-06-07T06:36:17.414Z,14.60
2019-06-07T06:38:49.743Z,14.60
2019-06-07T06:41:21.092Z,14.70
2019-06-07T06:43:52.610Z,14.90
2019-06-07T06:46:38.127Z,14.90
2019-06-07T06:48:55.861Z,14.90
2019-06-07T06:51:26.350Z,14.90
2019-06-07T06:53:56.694Z,15.10
2019-06-07T06:56:27.028Z,15.20
2019-06-07T06:59:34.159Z,15.30
2019-06-07T07:01:29.610Z,15.50
2019-06-07T07:04:12.557Z,15.80
2019-06-07T07:06:32.918Z,16.00
2019-06-07T07:09:04.617Z,16.20
2019-06-07T07:11:52.466Z,16.40
2019-06-07T07:14:07.002Z,16.70
2019-06-07T07:16:37.323Z,16.90
2019-06-07T07:19:07.647Z,17.10
2019-06-07T07:21:38.011Z,17.40
2019-06-07T07:24:21.161Z,17.50
2019-06-07T07:26:40.341Z,17.50
2019-06-07T07:29:10.668Z,17.60
2019-06-07T07:31:41.008Z,17.80
2019-06-07T07:34:32.563Z,17.90
2019-06-07T07:36:44.805Z,18.00
2019-06-07T07:39:15.406Z,18.20
2019-06-07T07:42:11.826Z,18.40
2019-06-07T07:44:17.736Z,18.40
2019-06-07T07:46:51.229Z,18.40
2019-06-07T07:49:20.102Z,18.50
2019-06-07T07:51:55.003Z,18.60
2019-06-07T07:54:22.459Z,18.70
2019-06-07T07:56:56.133Z,18.80
2019-06-07T07:59:41.274Z,19.00
2019-06-07T08:01:58.555Z,19.20
2019-06-07T08:05:12.202Z,19.40
2019-06-07T08:07:01.205Z,19.60
2019-06-07T08:09:31.551Z,19.60
2019-06-07T08:12:02.594Z,19.60
2019-06-07T08:14:33.248Z,19.60
2019-06-07T08:17:03.643Z,19.80
2019-06-07T08:19:33.968Z,19.70
2019-06-07T08:22:04.319Z,19.80
2019-06-07T08:24:34.634Z,20.00
2019-06-07T08:27:25.224Z,20.00
2019-06-07T08:29:44.874Z,20.10
2019-06-07T08:32:09.019Z,20.10
2019-06-07T08:34:39.344Z,20.30
2019-06-07T08:37:09.707Z,20.40
2019-06-07T08:39:40.089Z,20.60
2019-06-07T08:42:17.831Z,20.80
2019-06-07T08:44:42.517Z,20.80
2019-06-07T08:47:20.450Z,20.80
2019-06-07T08:49:44.919Z,21.00
2019-06-07T08:52:15.243Z,21.10
2019-06-07T08:54:45.559Z,21.00
2019-06-07T08:57:21.305Z,21.40
2019-06-07T08:59:47.909Z,21.50
2019-06-07T09:02:23.934Z,21.60
2019-06-07T09:04:50.243Z,21.80
2019-06-07T09:07:22.123Z,22.20
2019-06-07T09:09:59.759Z,22.20
2019-06-07T09:12:24.866Z,22.10
2019-06-07T09:15:09.342Z,22.10
2019-06-07T09:17:27.236Z,22.30
2019-06-07T09:19:58.956Z,22.40
2019-06-07T09:22:29.613Z,22.20
2019-06-07T09:25:05.888Z,22.50
2019-06-07T09:27:32.182Z,22.50
2019-06-07T09:30:08.823Z,22.90
2019-06-07T09:32:34.542Z,23.10
2019-06-07T09:35:12.382Z,23.30
2019-06-07T09:38:04.341Z,23.60
2019-06-07T09:40:25.012Z,23.80
2019-06-07T09:42:43.252Z,24.00
2019-06-07T09:45:14.165Z,24.30
2019-06-07T09:47:44.678Z,24.50
2019-06-07T09:50:15.038Z,24.90
2019-06-07T09:52:57.758Z,25.10
2019-06-07T09:55:24.199Z,25.70
2019-06-07T09:57:49.543Z,26.20
2019-06-07T10:00:40.137Z,26.70
2019-06-07T10:02:52.075Z,27.80
2019-06-07T10:05:22.472Z,29.60
2019-06-07T10:08:09.739Z,31.10
2019-06-07T10:10:42.783Z,32.20
2019-06-07T10:12:56.847Z,33.60
2019-06-07T10:15:27.173Z,34.60
2019-06-07T10:17:58.557Z,33.40
2019-06-07T10:20:29.007Z,30.90
2019-06-07T10:22:59.628Z,30.00
2019-06-07T10:25:30.238Z,28.30
2019-06-07T10:28:01.845Z,27.20
2019-06-07T10:30:32.298Z,26.60
2019-06-07T10:33:02.620Z,26.20
2019-06-07T10:35:32.964Z,25.80
2019-06-07T10:38:04.488Z,25.60
2019-06-07T10:40:35.114Z,25.50
2019-06-07T10:43:05.507Z,25.30
2019-06-07T10:45:35.819Z,25.30
2019-06-07T10:48:07.298Z,25.10
2019-06-07T10:50:38.119Z,24.90
2019-06-07T10:53:08.476Z,24.80
2019-06-07T10:55:38.824Z,24.70
2019-06-07T10:58:09.265Z,24.70
2019-06-07T11:00:39.575Z,24.90
2019-06-07T11:03:09.991Z,25.00
2019-06-07T11:05:40.289Z,24.80
2019-06-07T11:08:13.106Z,24.90
2019-06-07T11:10:42.677Z,25.00
2019-06-07T11:13:14.369Z,24.90
2019-06-07T11:15:44.812Z,25.00
2019-06-07T11:18:15.141Z,25.00
2019-06-07T11:20:45.579Z,25.10
2019-06-07T11:23:16.006Z,25.10
2019-06-07T11:25:46.341Z,25.10
2019-06-07T11:28:16.717Z,25.20
2019-06-07T11:30:47.037Z,25.40
2019-06-07T11:33:18.771Z,25.40
2019-06-07T11:35:49.347Z,25.50
2019-06-07T11:38:19.719Z,25.60
2019-06-07T11:40:50.041Z,25.70
2019-06-07T11:43:20.385Z,25.70
2019-06-07T11:45:50.679Z,25.90
2019-06-07T11:48:21.083Z,26.00
2019-06-07T11:50:51.396Z,25.90
2019-06-07T11:53:21.808Z,25.70
2019-06-07T11:55:52.095Z,25.80
2019-06-07T11:58:22.509Z,25.70
2019-06-07T12:00:52.845Z,25.70
2019-06-07T12:03:23.223Z,25.40
2019-06-07T12:05:53.547Z,25.40
2019-06-07T12:08:23.903Z,25.20
2019-06-07T12:10:54.215Z,25.30
2019-06-07T12:13:26.943Z,25.40
2019-06-07T12:15:56.673Z,25.60
2019-06-07T12:18:26.995Z,25.70
2019-06-07T12:20:57.324Z,25.70
2019-06-07T12:23:27.662Z,25.70
2019-06-07T12:25:57.991Z,25.80
2019-06-07T12:28:28.504Z,25.90
2019-06-07T12:30:58.842Z,25.90
2019-06-07T12:33:29.267Z,25.90
2019-06-07T12:35:59.585Z,25.90
2019-06-07T12:38:30.027Z,26.00
2019-06-07T12:41:00.462Z,26.00
2019-06-07T12:43:30.881Z,26.00
2019-06-07T12:46:01.268Z,26.10
2019-06-07T12:48:31.626Z,26.10
2019-06-07T12:51:01.941Z,26.00
2019-06-07T12:53:32.327Z,25.90
2019-06-07T12:56:02.631Z,26.10
2019-06-07T12:58:36.282Z,26.10
2019-06-07T13:01:05.237Z,26.30
2019-06-07T13:03:35.566Z,26.40
2019-06-07T13:06:05.913Z,26.50
2019-06-07T13:08:36.254Z,26.70
2019-06-07T13:11:16.059Z,26.60
2019-06-07T13:13:38.614Z,26.70
2019-06-07T13:16:08.998Z,26.70
2019-06-07T13:18:39.480Z,26.60
2019-06-07T13:21:09.808Z,26.80
2019-06-07T13:23:44.114Z,26.90
2019-06-07T13:26:12.153Z,26.80
2019-06-07T13:28:42.529Z,26.90
2019-06-07T13:31:12.874Z,27.00
2019-06-07T13:33:43.228Z,27.00
2019-06-07T13:36:13.543Z,27.00
2019-06-07T13:38:43.986Z,27.00
2019-06-07T13:41:29.275Z,27.10
2019-06-07T13:43:46.389Z,26.90
2019-06-07T13:46:16.939Z,27.00
2019-06-07T13:48:47.362Z,26.90
2019-06-07T13:51:18.965Z,26.90
2019-06-07T13:53:49.854Z,26.80
2019-06-07T13:56:20.333Z,26.90
2019-06-07T13:58:50.956Z,26.90
2019-06-07T14:01:22.491Z,26.80
2019-06-07T14:03:52.945Z,26.90
2019-06-07T14:06:23.567Z,26.80
2019-06-07T14:08:54.003Z,26.80
2019-06-07T14:11:25.392Z,27.00
2019-06-07T14:13:56.139Z,27.20
2019-06-07T14:16:26.530Z,27.30
2019-06-07T14:18:56.867Z,27.20
2019-06-07T14:21:28.669Z,27.30
2019-06-07T14:23:59.152Z,27.30
2019-06-07T14:26:29.604Z,27.20
2019-06-07T14:28:59.932Z,27.30
2019-06-07T14:31:30.451Z,27.30
2019-06-07T14:34:00.903Z,27.30
2019-06-07T14:36:31.238Z,27.20
2019-06-07T14:39:01.585Z,27.30
2019-06-07T14:41:33.542Z,27.30
2019-06-07T14:44:04.397Z,27.30
2019-06-07T14:46:34.770Z,27.30
2019-06-07T14:49:05.194Z,27.50
2019-06-07T14:51:35.531Z,27.40
2019-06-07T14:54:05.963Z,27.40
2019-06-07T14:56:36.312Z,27.50
2019-06-07T14:59:06.677Z,27.50
2019-06-07T15:01:36.999Z,27.50
2019-06-07T15:04:07.384Z,27.50
2019-06-07T15:06:38.927Z,27.60
2019-06-07T15:09:09.458Z,27.50
2019-06-07T15:11:39.799Z,27.40
2019-06-07T15:14:10.142Z,27.40
2019-06-07T15:16:40.519Z,27.40
2019-06-07T15:19:10.839Z,27.30
2019-06-07T15:21:41.181Z,27.30
2019-06-07T15:24:11.591Z,27.20
2019-06-07T15:26:41.975Z,27.10
2019-06-07T15:29:12.317Z,27.00
2019-06-07T15:31:42.673Z,27.10
2019-06-07T15:34:13.011Z,27.10
2019-06-07T15:36:43.386Z,27.10
2019-06-07T15:39:13.706Z,27.10
2019-06-07T15:41:44.065Z,27.00
2019-06-07T15:44:14.380Z,27.10
2019-06-07T15:46:44.708Z,27.20
2019-06-07T15:49:15.066Z,27.10
2019-06-07T15:51:45.489Z,27.00
2019-06-07T15:54:15.816Z,27.00
2019-06-07T15:56:46.165Z,27.10
2019-06-07T15:59:16.542Z,27.10
2019-06-07T16:01:46.983Z,27.00
2019-06-07T16:04:17.348Z,27.10
2019-06-07T16:06:47.704Z,27.20
2019-06-07T16:09:18.104Z,27.20
2019-06-07T16:11:48.530Z,27.10
2019-06-07T16:14:19.306Z,27.10
2019-06-07T16:16:50.054Z,27.20
2019-06-07T16:19:20.402Z,27.20
2019-06-07T16:21:50.749Z,27.20
2019-06-07T16:24:22.413Z,27.10
2019-06-07T16:26:52.822Z,27.10
2019-06-07T16:29:23.187Z,27.00
2019-06-07T16:31:53.543Z,26.90
2019-06-07T16:34:23.875Z,26.80
2019-06-07T16:36:54.248Z,26.80
2019-06-07T16:39:24.587Z,26.60
2019-06-07T16:41:54.956Z,26.50
2019-06-07T16:44:25.296Z,26.40
2019-06-07T16:46:55.675Z,26.40
2019-06-07T16:49:26.075Z,26.30
2019-06-07T16:51:56.507Z,26.20
2019-06-07T16:54:27.075Z,26.20
2019-06-07T16:56:57.462Z,26.20
2019-06-07T16:59:27.813Z,26.10
2019-06-07T17:01:58.231Z,26.00
2019-06-07T17:04:28.954Z,25.80
2019-06-07T17:06:59.297Z,25.70
2019-06-07T17:09:29.611Z,25.50
2019-06-07T17:11:59.963Z,25.40
2019-06-07T17:14:30.289Z,25.30
2019-06-07T17:17:00.648Z,25.20
2019-06-07T17:19:30.962Z,25.10
2019-06-07T17:22:01.307Z,25.00
2019-06-07T17:24:31.639Z,24.80
2019-06-07T17:27:01.996Z,24.70
2019-06-07T17:29:32.363Z,24.50
2019-06-07T17:32:02.712Z,24.40
2019-06-07T17:34:33.025Z,24.20
2019-06-07T17:37:03.394Z,24.00
2019-06-07T17:39:33.737Z,23.70
2019-06-07T17:42:04.083Z,23.50
2019-06-07T17:44:34.426Z,23.40
2019-06-07T17:47:04.805Z,23.10
2019-06-07T17:49:35.140Z,22.80
2019-06-07T17:52:05.481Z,22.40
2019-06-07T17:54:35.869Z,22.20
2019-06-07T17:57:06.228Z,22.10
2019-06-07T17:59:36.579Z,22.10
2019-06-07T18:02:14.800Z,22.00
2019-06-07T18:04:38.974Z,21.70
2019-06-07T18:07:10.039Z,21.60
2019-06-07T18:09:40.359Z,21.40
2019-06-07T18:12:10.718Z,21.20
2019-06-07T18:14:41.052Z,21.00
2019-06-07T18:17:11.388Z,20.80
2019-06-07T18:19:41.767Z,20.60
2019-06-07T18:22:12.116Z,20.40
2019-06-07T18:24:42.591Z,20.30
2019-06-07T18:27:12.923Z,20.30
2019-06-07T18:29:43.235Z,20.40
2019-06-07T18:32:13.779Z,20.30
2019-06-07T18:34:44.125Z,20.30
2019-06-07T18:37:14.505Z,20.30
2019-06-07T18:39:44.821Z,20.30
2019-06-07T18:42:15.207Z,20.20
2019-06-07T18:44:45.523Z,20.10
2019-06-07T18:47:15.921Z,20.10
2019-06-07T18:49:47.401Z,20.00
2019-06-07T18:52:21.748Z,19.90
2019-06-07T18:54:53.058Z,19.90
2019-06-07T18:57:23.563Z,19.90
2019-06-07T18:59:54.506Z,19.80
2019-06-07T19:02:25.115Z,19.70
2019-06-07T19:04:56.379Z,19.60
2019-06-07T19:07:27.116Z,19.50
2019-06-07T19:09:57.498Z,19.60
2019-06-07T19:12:27.868Z,19.60
2019-06-07T19:14:59.422Z,19.60
2019-06-07T19:17:30.123Z,19.50
2019-06-07T19:20:00.761Z,19.40
2019-06-07T19:22:31.194Z,19.30
2019-06-07T19:25:01.537Z,19.20
2019-06-07T19:27:33.007Z,19.20
2019-06-07T19:30:04.267Z,19.20
2019-06-07T19:32:34.609Z,19.30
2019-06-07T19:35:05.728Z,19.20
2019-06-07T19:37:36.079Z,19.20
2019-06-07T19:40:07.258Z,19.20
2019-06-07T19:42:37.665Z,19.20
2019-06-07T19:45:29.107Z,19.10
2019-06-07T19:47:40.351Z,19.10
2019-06-07T19:50:13.509Z,19.00
2019-06-07T19:52:43.910Z,19.10
2019-06-07T19:55:14.244Z,19.10
2019-06-07T19:57:44.599Z,18.90
2019-06-07T20:00:15.323Z,19.10
2019-06-07T20:02:45.703Z,19.00
2019-06-07T20:05:16.923Z,19.00
2019-06-07T20:07:47.285Z,18.80
2019-06-07T20:10:17.957Z,18.70
2019-06-07T20:12:48.329Z,18.50
2019-06-07T20:15:28.543Z,18.50
2019-06-07T20:17:50.772Z,18.40
2019-06-07T20:20:23.833Z,18.50
2019-06-07T20:22:53.265Z,18.50
2019-06-07T20:25:23.612Z,18.50
2019-06-07T20:27:53.939Z,18.60
2019-06-07T20:30:24.279Z,18.30
2019-06-07T20:32:54.981Z,18.20
2019-06-07T20:35:25.303Z,18.20
2019-06-07T20:37:56.761Z,18.20
2019-06-07T20:40:27.289Z,18.10
2019-06-07T20:42:59.331Z,17.80
2019-06-07T20:45:33.499Z,17.90
2019-06-07T20:48:02.114Z,17.90
2019-06-07T20:50:38.159Z,17.80
2019-06-07T20:53:09.136Z,17.60
2019-06-07T20:55:39.654Z,17.50
2019-06-07T20:58:10.067Z,17.50
2019-06-07T21:00:40.380Z,17.40
2019-06-07T21:03:10.761Z,17.20
2019-06-07T21:05:41.115Z,17.20
2019-06-07T21:08:12.943Z,17.10
2019-06-07T21:10:43.678Z,17.20
2019-06-07T21:13:14.469Z,17.30
2019-06-07T21:15:48.644Z,17.10
2019-06-07T21:18:19.735Z,17.10
2019-06-07T21:20:49.334Z,17.00
2019-06-07T21:23:20.120Z,16.80
2019-06-07T21:25:50.478Z,16.70
2019-06-07T21:28:20.957Z,16.40
2019-06-07T21:30:51.331Z,16.30
2019-06-07T21:33:21.706Z,16.20
2019-06-07T21:35:52.073Z,16.10
2019-06-07T21:38:22.441Z,16.00
2019-06-07T21:40:52.842Z,16.00
2019-06-07T21:43:23.207Z,16.00
2019-06-07T21:46:04.735Z,16.00
2019-06-07T21:48:25.673Z,15.80
2019-06-07T21:50:57.555Z,15.70
2019-06-07T21:53:27.927Z,15.70
2019-06-07T21:55:58.286Z,15.80
2019-06-07T21:58:28.671Z,15.80
2019-06-07T22:01:14.200Z,15.70
2019-06-07T22:03:44.963Z,15.60
2019-06-07T22:06:15.690Z,15.50
2019-06-07T22:08:46.079Z,15.60
2019-06-07T22:11:16.422Z,15.70
2019-06-07T22:13:46.837Z,15.60
2019-06-07T22:16:28.664Z,15.70
2019-06-07T22:18:49.312Z,15.70
2019-06-07T22:21:19.653Z,15.80
2019-06-07T22:23:50.016Z,15.90
2019-06-07T22:26:20.362Z,15.80
2019-06-07T22:28:50.730Z,15.60
2019-06-07T22:31:21.046Z,15.50
2019-06-07T22:33:51.402Z,15.40
2019-06-07T22:36:21.751Z,15.30
2019-06-07T22:38:52.147Z,15.40
2019-06-07T22:41:22.471Z,15.30
2019-06-07T22:43:52.818Z,15.40
2019-06-07T22:46:36.953Z,15.40
2019-06-07T22:48:56.016Z,15.30
2019-06-07T22:51:26.356Z,15.30
2019-06-07T22:53:56.725Z,15.30
2019-06-07T22:56:41.068Z,15.20
2019-06-07T22:59:14.075Z,15.10
2019-06-07T23:01:43.455Z,15.20
2019-06-07T23:04:14.565Z,15.40
2019-06-07T23:06:44.913Z,15.50
2019-06-07T23:09:15.261Z,15.60
2019-06-07T23:11:45.601Z,15.70
2019-06-07T23:14:15.954Z,15.60
2019-06-07T23:16:55.546Z,15.60
2019-06-07T23:19:18.386Z,15.70
2019-06-07T23:21:48.737Z,15.80
2019-06-07T23:24:20.106Z,15.70
2019-06-07T23:26:51.202Z,15.70
2019-06-07T23:29:21.537Z,15.70
2019-06-07T23:31:51.844Z,15.80
2019-06-07T23:34:22.204Z,15.90
2019-06-07T23:36:52.527Z,16.00
2019-06-07T23:39:22.879Z,16.00
2019-06-07T23:41:53.218Z,16.00
2019-06-07T23:44:23.581Z,15.90
2019-06-07T23:46:53.948Z,15.90
2019-06-07T23:49:24.447Z,15.90
2019-06-07T23:51:54.820Z,15.80
2019-06-07T23:54:25.158Z,16.00
2019-06-07T23:56:55.484Z,15.90
2019-06-07T23:59:25.811Z,15.80
